createdAt,value
2022-10-13T00:01:11.850Z,102158.69
2022-10-13T00:03:40.975Z,102161.13
2022-10-13T00:06:10.665Z,102164.63
2022-10-13T00:08:39.872Z,102158.38
2022-10-13T00:11:16.167Z,102166.22
2022-10-13T00:13:44.583Z,102164.63
2022-10-13T00:16:14.410Z,102157.53
2022-10-13T00:18:42.595Z,102160.97
2022-10-13T00:21:14.447Z,102162.41
2022-10-13T00:23:42.188Z,102161.59
2022-10-13T00:26:12.210Z,102154.59
2022-10-13T00:28:40.117Z,102163.63
2022-10-13T00:31:29.330Z,102167.06
2022-10-13T00:33:59.241Z,102150.41
2022-10-13T00:36:27.483Z,102149.75
2022-10-13T00:38:56.821Z,102151.75
2022-10-13T00:41:24.654Z,102156.16
2022-10-13T00:44:01.162Z,102152.94
2022-10-13T00:46:37.081Z,102160.69
2022-10-13T00:49:11.248Z,102158.28
2022-10-13T00:51:42.179Z,102159.84
2022-10-13T00:54:14.032Z,102156.31
2022-10-13T00:56:43.022Z,102149.00
2022-10-13T00:59:17.445Z,102153.09
2022-10-13T01:01:44.939Z,102160.22
2022-10-13T01:04:12.381Z,102154.94
2022-10-13T01:06:40.635Z,102155.94
2022-10-13T01:09:08.108Z,102159.44
2022-10-13T01:12:02.882Z,102161.13
2022-10-13T01:14:38.428Z,102165.72
2022-10-13T01:17:30.152Z,102167.63
2022-10-13T01:20:00.230Z,102160.56
2022-10-13T01:23:02.930Z,102167.75
2022-10-13T01:25:39.079Z,102149.88
2022-10-13T01:28:39.652Z,102150.16
2022-10-13T01:31:20.220Z,102151.38
2022-10-13T01:34:05.916Z,102152.34
2022-10-13T01:36:42.913Z,102145.97
2022-10-13T01:39:19.199Z,102151.44
2022-10-13T01:41:51.701Z,102149.69
2022-10-13T01:44:29.348Z,102157.41
2022-10-13T01:46:58.305Z,102150.44
2022-10-13T01:49:30.985Z,102160.00
2022-10-13T01:52:03.067Z,102153.53
2022-10-13T01:54:30.651Z,102154.78
2022-10-13T01:56:58.129Z,102159.03
2022-10-13T01:59:30.616Z,102156.34
2022-10-13T02:02:19.130Z,102147.47
2022-10-13T02:05:01.804Z,102158.13
2022-10-13T02:07:29.299Z,102148.44
2022-10-13T02:10:26.484Z,102154.50
2022-10-13T02:12:59.401Z,102154.53
2022-10-13T02:15:35.873Z,102152.00
2022-10-13T02:18:04.744Z,102153.81
2022-10-13T02:20:32.707Z,102154.34
2022-10-13T02:23:06.188Z,102149.03
2022-10-13T02:25:34.331Z,102143.00
2022-10-13T02:28:02.490Z,102145.41
2022-10-13T02:30:32.064Z,102143.88
2022-10-13T02:33:00.985Z,102148.75
2022-10-13T02:35:29.929Z,102141.72
2022-10-13T02:37:57.353Z,102144.56
2022-10-13T02:40:25.386Z,102136.75
2022-10-13T02:42:52.870Z,102138.56
2022-10-13T02:45:20.852Z,102142.16
2022-10-13T02:47:48.446Z,102145.69
2022-10-13T02:50:16.119Z,102138.78
2022-10-13T02:52:43.547Z,102142.94
2022-10-13T02:55:10.971Z,102141.94
2022-10-13T02:57:38.550Z,102143.66
2022-10-13T03:00:07.291Z,102140.06
2022-10-13T03:02:35.232Z,102141.06
2022-10-13T03:05:02.777Z,102137.41
2022-10-13T03:07:30.743Z,102134.66
2022-10-13T03:09:58.267Z,102121.53
2022-10-13T03:12:26.088Z,102135.50
2022-10-13T03:14:53.732Z,102131.03
2022-10-13T03:17:21.330Z,102129.44
2022-10-13T03:19:48.844Z,102133.81
2022-10-13T03:22:16.320Z,102129.50
2022-10-13T03:24:43.901Z,102132.13
2022-10-13T03:27:11.627Z,102128.69
2022-10-13T03:29:39.173Z,102127.78
2022-10-13T03:32:06.849Z,102135.44
2022-10-13T03:34:34.537Z,102130.44
2022-10-13T03:37:02.455Z,102124.44
2022-10-13T03:39:29.937Z,102123.06
2022-10-13T03:41:57.452Z,102124.88
2022-10-13T03:44:24.961Z,102132.09
2022-10-13T03:46:52.428Z,102125.22
2022-10-13T03:49:20.035Z,102127.06
2022-10-13T03:51:47.552Z,102122.03
2022-10-13T03:54:15.439Z,102124.84
2022-10-13T03:56:43.374Z,102125.91
2022-10-13T03:59:13.239Z,102124.25
2022-10-13T04:01:40.942Z,102122.59
2022-10-13T04:04:11.248Z,102126.22
2022-10-13T04:06:39.418Z,102126.53
2022-10-13T04:09:07.051Z,102119.59
2022-10-13T04:11:34.512Z,102128.53
2022-10-13T04:14:02.350Z,102126.06
2022-10-13T04:16:31.436Z,102119.03
2022-10-13T04:19:00.513Z,102129.69
2022-10-13T04:21:29.442Z,102128.13
2022-10-13T04:23:58.740Z,102116.13
2022-10-13T04:26:29.925Z,102125.63
2022-10-13T04:28:57.757Z,102129.88
2022-10-13T04:31:25.836Z,102122.91
2022-10-13T04:33:53.691Z,102116.97
2022-10-13T04:36:21.892Z,102123.13
2022-10-13T04:38:50.205Z,102125.88
2022-10-13T04:41:19.224Z,102129.25
2022-10-13T04:43:50.730Z,102125.84
2022-10-13T04:46:27.511Z,102127.50
2022-10-13T04:48:55.777Z,102134.38
2022-10-13T04:51:25.639Z,102126.63
2022-10-13T04:53:58.140Z,102128.31
2022-10-13T04:56:26.223Z,102126.41
2022-10-13T04:58:54.000Z,102126.50
2022-10-13T05:01:24.444Z,102125.50
2022-10-13T05:04:00.830Z,102124.47
2022-10-13T05:06:34.588Z,102129.13
2022-10-13T05:09:02.495Z,102124.84
2022-10-13T05:11:30.811Z,102119.69
2022-10-13T05:13:59.640Z,102123.00
2022-10-13T05:16:27.225Z,102120.34
2022-10-13T05:18:55.443Z,102121.94
2022-10-13T05:21:28.526Z,102124.47
2022-10-13T05:23:57.404Z,102122.69
2022-10-13T05:26:29.030Z,102126.94
2022-10-13T05:28:58.411Z,102122.44
2022-10-13T05:31:28.024Z,102124.69
2022-10-13T05:33:56.457Z,102126.31
2022-10-13T05:36:32.667Z,102119.94
2022-10-13T05:39:03.533Z,102119.84
2022-10-13T05:41:31.929Z,102126.88
2022-10-13T05:44:07.585Z,102128.59
2022-10-13T05:46:35.776Z,102123.38
2022-10-13T05:49:04.085Z,102129.50
2022-10-13T05:51:38.248Z,102126.72
2022-10-13T05:54:08.439Z,102126.63
2022-10-13T05:56:46.729Z,102123.00
2022-10-13T05:59:17.022Z,102125.41
2022-10-13T06:01:45.817Z,102121.47
2022-10-13T06:04:38.654Z,102116.97
2022-10-13T06:07:08.046Z,102114.88
2022-10-13T06:09:40.544Z,102128.75
2022-10-13T06:12:09.477Z,102116.28
2022-10-13T06:14:37.225Z,102111.66
2022-10-13T06:17:04.975Z,102117.50
2022-10-13T06:19:32.517Z,102117.91
2022-10-13T06:22:03.415Z,102113.19
2022-10-13T06:24:31.752Z,102117.97
2022-10-13T06:26:59.257Z,102120.41
2022-10-13T06:29:27.064Z,102113.09
2022-10-13T06:31:54.741Z,102120.63
2022-10-13T06:34:22.251Z,102111.63
2022-10-13T06:36:49.734Z,102114.75
2022-10-13T06:39:17.831Z,102115.75
2022-10-13T06:41:45.565Z,102112.47
2022-10-13T06:44:14.130Z,102125.66
2022-10-13T06:46:41.651Z,102124.34
2022-10-13T06:49:12.759Z,102124.34
2022-10-13T06:51:40.421Z,102125.31
2022-10-13T06:54:07.861Z,102118.56
2022-10-13T06:56:35.654Z,102121.41
2022-10-13T06:59:03.332Z,102112.94
2022-10-13T07:01:30.833Z,102119.88
2022-10-13T07:03:58.969Z,102112.63
2022-10-13T07:06:26.541Z,102111.56
2022-10-13T07:08:54.585Z,102110.41
2022-10-13T07:11:22.349Z,102114.19
2022-10-13T07:13:50.284Z,102109.00
2022-10-13T07:16:18.042Z,102104.75
2022-10-13T07:18:47.880Z,102108.34
2022-10-13T07:21:15.847Z,102107.13
2022-10-13T07:23:43.611Z,102099.59
2022-10-13T07:26:13.900Z,102103.63
2022-10-13T07:28:42.273Z,102106.09
2022-10-13T07:31:18.348Z,102092.66
2022-10-13T07:33:49.031Z,102097.56
2022-10-13T07:36:17.177Z,102095.06
2022-10-13T07:38:45.155Z,102101.38
2022-10-13T07:41:13.757Z,102101.97
2022-10-13T07:43:41.487Z,102097.94
2022-10-13T07:46:12.063Z,102100.03
2022-10-13T07:48:40.622Z,102098.59
2022-10-13T07:51:12.311Z,102094.47
2022-10-13T07:53:42.209Z,102100.47
2022-10-13T07:56:12.049Z,102102.78
2022-10-13T07:58:44.481Z,102096.69
2022-10-13T08:01:13.441Z,102088.06
2022-10-13T08:03:45.437Z,102095.97
2022-10-13T08:06:15.201Z,102096.06
2022-10-13T08:08:42.771Z,102094.84
2022-10-13T08:11:16.197Z,102091.47
2022-10-13T08:13:52.223Z,102102.38
2022-10-13T08:16:19.669Z,102095.66
2022-10-13T08:18:47.899Z,102094.06
2022-10-13T08:21:56.799Z,102088.16
2022-10-13T08:24:07.357Z,102087.59
2022-10-13T08:26:35.022Z,102089.91
2022-10-13T08:29:20.583Z,102091.63
2022-10-13T08:31:50.657Z,102095.75
2022-10-13T08:34:18.665Z,102086.44
2022-10-13T08:36:46.489Z,102095.06
2022-10-13T08:39:14.283Z,102090.38
2022-10-13T08:41:44.238Z,102090.38
2022-10-13T08:47:28.082Z,102091.16
2022-10-13T08:50:00.990Z,102096.09
2022-10-13T08:52:43.463Z,102084.56
2022-10-13T08:55:47.239Z,102077.38
2022-10-13T08:58:31.241Z,102086.28
2022-10-13T09:01:10.901Z,102077.38
2022-10-13T09:04:47.402Z,102079.09
2022-10-13T09:07:17.763Z,102068.66
2022-10-13T09:09:50.821Z,102065.69
2022-10-13T09:12:22.251Z,102072.69
2022-10-13T09:15:05.255Z,102070.81
2022-10-13T09:17:34.625Z,102071.59
2022-10-13T09:20:20.961Z,102071.59
2022-10-13T09:23:22.503Z,102072.03
2022-10-13T09:25:54.120Z,102062.81
2022-10-13T09:28:31.085Z,102061.88
2022-10-13T09:31:14.264Z,102060.56
2022-10-13T09:33:42.241Z,102062.19
2022-10-13T09:36:13.153Z,102062.00
2022-10-13T09:39:04.166Z,102060.88
2022-10-13T09:41:32.581Z,102058.56
2022-10-13T09:44:09.500Z,102056.06
2022-10-13T09:46:46.479Z,102062.22
2022-10-13T09:49:31.926Z,102064.53
2022-10-13T09:52:22.329Z,102064.38
2022-10-13T09:54:56.996Z,102054.69
2022-10-13T09:57:45.839Z,102062.38
2022-10-13T10:00:24.193Z,102068.47
2022-10-13T10:03:07.064Z,102064.28
2022-10-13T10:05:53.710Z,102064.28
2022-10-13T10:08:58.041Z,102063.16
2022-10-13T10:11:35.976Z,102069.50
2022-10-13T10:14:24.005Z,102064.28
2022-10-13T10:17:02.475Z,102065.03
2022-10-13T10:19:38.815Z,102067.69
2022-10-13T10:22:14.521Z,102060.41
2022-10-13T10:24:41.982Z,102069.03
2022-10-13T10:30:04.821Z,102067.91
2022-10-13T10:32:44.333Z,102064.16
2022-10-13T10:35:17.332Z,102070.41
2022-10-13T10:38:14.158Z,102062.44
2022-10-13T10:41:02.767Z,102063.28
2022-10-13T10:43:45.415Z,102063.22
2022-10-13T10:46:20.413Z,102066.63
2022-10-13T10:48:50.538Z,102056.88
2022-10-13T10:51:19.609Z,102057.53
2022-10-13T10:53:55.621Z,102057.63
2022-10-13T10:56:22.955Z,102065.50
2022-10-13T10:59:08.781Z,102069.97
2022-10-13T11:01:46.497Z,102064.72
2022-10-13T11:04:45.059Z,102059.78
2022-10-13T11:07:14.160Z,102059.03
2022-10-13T11:09:41.932Z,102063.38
2022-10-13T11:12:21.881Z,102061.69
2022-10-13T11:14:55.364Z,102057.31
2022-10-13T11:17:38.022Z,102059.03
2022-10-13T11:20:20.767Z,102058.91
2022-10-13T11:23:00.208Z,102051.75
2022-10-13T11:25:34.256Z,102055.25
2022-10-13T11:28:21.965Z,102057.91
2022-10-13T11:31:32.034Z,102057.06
2022-10-13T11:34:03.640Z,102052.69
2022-10-13T11:36:35.480Z,102059.53
2022-10-13T11:39:14.782Z,102056.19
2022-10-13T11:42:08.562Z,102061.50
2022-10-13T11:44:58.172Z,102057.31
2022-10-13T11:47:43.926Z,102052.94
2022-10-13T11:50:39.094Z,102055.34
2022-10-13T11:53:23.237Z,102047.19
2022-10-13T11:55:53.185Z,102044.63
2022-10-13T11:58:22.613Z,102046.31
2022-10-13T12:01:00.007Z,102053.44
2022-10-13T12:03:38.485Z,102042.00
2022-10-13T12:06:35.732Z,102048.13
2022-10-13T12:09:18.459Z,102046.94
2022-10-13T12:11:46.762Z,102045.97
2022-10-13T12:14:43.237Z,102048.63
2022-10-13T12:17:29.534Z,102040.94
2022-10-13T12:20:00.941Z,102042.75
2022-10-13T12:22:29.290Z,102041.88
2022-10-13T12:25:05.579Z,102046.31
2022-10-13T12:27:49.643Z,102038.38
2022-10-13T12:30:30.923Z,102045.28
2022-10-13T12:33:01.157Z,102035.63
2022-10-13T12:35:32.215Z,102037.69
2022-10-13T12:38:06.226Z,102037.63
2022-10-13T12:40:34.550Z,102032.31
2022-10-13T12:43:05.102Z,102029.84
2022-10-13T12:45:34.820Z,102027.94
2022-10-13T12:48:02.525Z,102023.75
2022-10-13T12:50:37.027Z,102023.19
2022-10-13T12:53:13.773Z,102026.13
2022-10-13T12:56:03.667Z,102020.75
2022-10-13T12:58:33.967Z,102020.75
2022-10-13T13:01:29.830Z,102018.09
2022-10-13T13:04:16.124Z,102021.69
2022-10-13T13:06:56.537Z,102021.69
2022-10-13T13:09:42.419Z,102017.06
2022-10-13T13:12:13.002Z,102015.25
2022-10-13T13:14:43.196Z,102013.53
2022-10-13T13:17:23.503Z,102016.19
2022-10-13T13:20:25.669Z,102007.63
2022-10-13T13:22:54.518Z,102016.56
2022-10-13T13:25:22.855Z,102014.78
2022-10-13T13:27:51.107Z,102004.16
2022-10-13T13:30:21.759Z,102008.25
2022-10-13T13:32:50.053Z,102008.25
2022-10-13T13:35:18.137Z,101998.47
2022-10-13T13:37:51.034Z,102000.28
2022-10-13T13:40:22.025Z,102004.66
2022-10-13T13:42:49.523Z,102002.00
2022-10-13T13:45:20.160Z,102005.75
2022-10-13T13:47:48.237Z,102013.53
2022-10-13T13:50:21.016Z,102005.47
2022-10-13T13:52:48.597Z,102002.81
2022-10-13T13:55:16.936Z,102004.53
2022-10-13T13:57:44.925Z,102007.13
2022-10-13T14:00:14.867Z,102001.13
2022-10-13T14:02:44.344Z,101999.22
2022-10-13T14:05:12.686Z,102007.19
2022-10-13T14:07:41.102Z,102002.81
2022-10-13T14:10:10.249Z,102008.13
2022-10-13T14:12:38.227Z,102003.88
2022-10-13T14:15:06.771Z,102003.13
2022-10-13T14:17:34.455Z,101999.69
2022-10-13T14:20:02.037Z,101998.94
2022-10-13T14:22:29.777Z,102004.03
2022-10-13T14:24:57.576Z,102001.31
2022-10-13T14:27:25.114Z,102004.84
2022-10-13T14:29:52.987Z,102003.88
2022-10-13T14:32:21.002Z,101995.03
2022-10-13T14:34:48.770Z,102001.31
2022-10-13T14:37:18.845Z,102003.00
2022-10-13T14:39:48.801Z,102003.97
2022-10-13T14:42:16.572Z,102003.88
2022-10-13T14:44:44.330Z,101998.56
2022-10-13T14:47:12.225Z,101995.16
2022-10-13T14:49:39.971Z,102001.31
2022-10-13T14:52:07.822Z,101999.59
2022-10-13T14:54:35.298Z,101994.09
2022-10-13T14:57:05.582Z,101995.16
2022-10-13T14:59:33.167Z,101994.28
2022-10-13T15:02:00.952Z,101998.75
2022-10-13T15:04:28.695Z,101990.03
2022-10-13T15:06:56.463Z,101997.13
2022-10-13T15:09:33.450Z,101985.78
2022-10-13T15:12:11.939Z,101990.09
2022-10-13T15:14:39.385Z,101994.56
2022-10-13T15:17:06.885Z,101992.88
2022-10-13T15:19:34.794Z,101991.16
2022-10-13T15:22:02.666Z,101986.69
2022-10-13T15:24:30.319Z,101999.13
2022-10-13T15:26:57.972Z,101995.59
2022-10-13T15:29:25.898Z,101977.97
2022-10-13T15:32:08.155Z,101985.09
2022-10-13T15:34:35.938Z,101984.41
2022-10-13T15:37:03.713Z,101990.47
2022-10-13T15:39:31.594Z,101986.22
2022-10-13T15:41:59.110Z,101989.72
2022-10-13T15:44:26.686Z,101988.88
2022-10-13T15:47:07.456Z,101983.56
2022-10-13T15:49:38.234Z,101985.34
2022-10-13T15:52:05.936Z,101989.91
2022-10-13T15:54:35.777Z,101986.41
2022-10-13T15:57:03.620Z,101982.78
2022-10-13T15:59:33.772Z,101982.97
2022-10-13T16:02:03.192Z,101975.88
2022-10-13T16:04:36.394Z,101977.75
2022-10-13T16:07:04.949Z,101977.84
2022-10-13T16:09:32.542Z,101979.56
2022-10-13T16:12:00.278Z,101974.44
2022-10-13T16:14:28.038Z,101983.25
2022-10-13T16:16:55.591Z,101980.50
2022-10-13T16:19:23.153Z,101981.47
2022-10-13T16:21:50.831Z,101970.00
2022-10-13T16:24:18.631Z,101971.84
2022-10-13T16:26:46.333Z,101973.69
2022-10-13T16:29:13.945Z,101980.78
2022-10-13T16:31:41.399Z,101978.22
2022-10-13T16:34:09.127Z,101965.06
2022-10-13T16:36:36.837Z,101970.44
2022-10-13T16:39:04.868Z,101967.78
2022-10-13T16:41:32.450Z,101971.28
2022-10-13T16:44:00.129Z,101966.00
2022-10-13T16:46:27.692Z,101968.63
2022-10-13T16:48:55.204Z,101970.53
2022-10-13T16:51:25.257Z,101974.88
2022-10-13T16:53:58.627Z,101966.25
2022-10-13T16:56:29.898Z,101964.47
2022-10-13T16:59:00.802Z,101959.16
2022-10-13T17:01:29.275Z,101960.09
2022-10-13T17:03:57.538Z,101957.44
2022-10-13T17:06:27.849Z,101954.88
2022-10-13T17:08:58.292Z,101950.34
2022-10-13T17:11:29.095Z,101951.31
2022-10-13T17:13:57.886Z,101955.63
2022-10-13T17:16:27.031Z,101952.31
2022-10-13T17:18:55.655Z,101945.31
2022-10-13T17:21:23.642Z,101951.47
2022-10-13T17:23:51.837Z,101953.16
2022-10-13T17:26:21.471Z,101948.84
2022-10-13T17:28:49.287Z,101950.44
2022-10-13T17:31:20.705Z,101954.78
2022-10-13T17:33:49.351Z,101953.94
2022-10-13T17:36:27.645Z,101954.13
2022-10-13T17:38:56.882Z,101955.81
2022-10-13T17:41:25.302Z,101953.34
2022-10-13T17:43:54.597Z,101951.56
2022-10-13T17:46:37.400Z,101949.78
2022-10-13T17:49:11.506Z,101956.13
2022-10-13T17:51:41.134Z,101951.66
2022-10-13T17:54:15.295Z,101952.50
2022-10-13T17:56:44.139Z,101950.03
2022-10-13T17:59:12.414Z,101947.38
2022-10-13T18:01:42.074Z,101942.94
2022-10-13T18:04:13.574Z,101940.38
2022-10-13T18:06:43.944Z,101952.69
2022-10-13T18:09:24.232Z,101943.13
2022-10-13T18:11:54.486Z,101949.16
2022-10-13T18:14:24.620Z,101952.59
2022-10-13T18:16:52.557Z,101949.16
2022-10-13T18:19:21.475Z,101949.94
2022-10-13T18:21:53.077Z,101952.78
2022-10-13T18:24:20.743Z,101946.69
2022-10-13T18:26:48.735Z,101952.84
2022-10-13T18:29:16.487Z,101949.28
2022-10-13T18:31:44.256Z,101949.28
2022-10-13T18:34:14.690Z,101944.16
2022-10-13T18:36:48.508Z,101958.34
2022-10-13T18:39:17.533Z,101950.31
2022-10-13T18:41:46.116Z,101953.03
2022-10-13T18:44:14.630Z,101946.88
2022-10-13T18:46:42.867Z,101950.22
2022-10-13T18:49:13.652Z,101952.09
2022-10-13T18:51:42.014Z,101945.88
2022-10-13T18:54:10.335Z,101944.22
2022-10-13T18:56:38.059Z,101938.06
2022-10-13T18:59:07.365Z,101938.91
2022-10-13T19:01:37.006Z,101948.59
2022-10-13T19:04:05.864Z,101940.72
2022-10-13T19:06:33.715Z,101940.72
2022-10-13T19:09:05.147Z,101940.63
2022-10-13T19:11:33.762Z,101935.53
2022-10-13T19:14:01.837Z,101938.91
2022-10-13T19:16:31.163Z,101936.09
2022-10-13T19:18:58.951Z,101937.13
2022-10-13T19:21:26.727Z,101938.06
2022-10-13T19:23:55.150Z,101939.03
2022-10-13T19:26:26.780Z,101939.78
2022-10-13T19:28:57.163Z,101935.53
2022-10-13T19:31:27.562Z,101932.13
2022-10-13T19:33:55.737Z,101941.75
2022-10-13T19:36:34.242Z,101938.19
2022-10-13T19:39:06.165Z,101940.81
2022-10-13T19:41:35.009Z,101936.38
2022-10-13T19:44:03.129Z,101930.28
2022-10-13T19:46:31.809Z,101926.81
2022-10-13T19:48:59.614Z,101936.38
2022-10-13T19:51:27.431Z,101932.00
2022-10-13T19:53:55.276Z,101932.69
2022-10-13T19:56:26.253Z,101935.41
2022-10-13T19:58:54.383Z,101930.91
2022-10-13T20:01:22.902Z,101932.69
2022-10-13T20:03:50.782Z,101932.00
2022-10-13T20:06:19.409Z,101937.41
2022-10-13T20:08:47.217Z,101933.91
2022-10-13T20:11:23.062Z,101933.06
2022-10-13T20:13:53.008Z,101932.53
2022-10-13T20:16:22.050Z,101924.41
2022-10-13T20:18:53.363Z,101929.78
2022-10-13T20:21:20.975Z,101922.63
2022-10-13T20:23:48.985Z,101925.28
2022-10-13T20:26:17.576Z,101918.41
2022-10-13T20:28:47.028Z,101919.25
2022-10-13T20:31:17.238Z,101928.16
2022-10-13T20:33:44.893Z,101920.06
2022-10-13T20:36:14.771Z,101922.63
2022-10-13T20:38:42.347Z,101919.00
2022-10-13T20:41:24.701Z,101925.34
2022-10-13T20:43:53.913Z,101924.66
2022-10-13T20:46:22.279Z,101919.19
2022-10-13T20:49:10.026Z,101927.16
2022-10-13T20:51:38.885Z,101928.97
2022-10-13T20:54:06.447Z,101931.50
2022-10-13T20:56:33.977Z,101928.13
2022-10-13T20:59:06.801Z,101924.50
2022-10-13T21:01:35.439Z,101927.94
2022-10-13T21:04:03.721Z,101928.69
2022-10-13T21:06:31.379Z,101928.59
2022-10-13T21:08:59.095Z,101925.16
2022-10-13T21:11:26.568Z,101920.91
2022-10-13T21:13:54.490Z,101919.25
2022-10-13T21:16:24.809Z,101921.06
2022-10-13T21:18:52.335Z,101923.66
2022-10-13T21:21:24.908Z,101919.19
2022-10-13T21:23:54.021Z,101922.69
2022-10-13T21:26:22.941Z,101924.50
2022-10-13T21:28:51.808Z,101921.03
2022-10-13T21:31:22.434Z,101920.91
2022-10-13T21:33:50.742Z,101914.75
2022-10-13T21:36:26.948Z,101908.59
2022-10-13T21:38:57.320Z,101907.66
2022-10-13T21:41:25.715Z,101913.81
2022-10-13T21:43:53.925Z,101909.38
2022-10-13T21:46:25.096Z,101908.41
2022-10-13T21:48:54.314Z,101906.72
2022-10-13T21:51:29.397Z,101912.22
2022-10-13T21:53:59.801Z,101915.72
2022-10-13T21:56:28.449Z,101909.59
2022-10-13T21:58:56.337Z,101899.94
2022-10-13T22:01:24.390Z,101907.75
2022-10-13T22:04:00.397Z,101906.78
2022-10-13T22:06:28.978Z,101912.88
2022-10-13T22:08:58.052Z,101905.88
2022-10-13T22:11:28.795Z,101905.75
2022-10-13T22:13:57.693Z,101902.28
2022-10-13T22:16:28.404Z,101905.00
2022-10-13T22:18:57.359Z,101905.88
2022-10-13T22:21:30.415Z,101896.28
2022-10-13T22:23:59.874Z,101897.16
2022-10-13T22:26:29.715Z,101891.84
2022-10-13T22:29:00.282Z,101893.66
2022-10-13T22:31:28.933Z,101885.59
2022-10-13T22:33:56.743Z,101888.22
2022-10-13T22:36:25.799Z,101893.66
2022-10-13T22:38:55.902Z,101895.41
2022-10-13T22:41:23.423Z,101894.50
2022-10-13T22:43:55.861Z,101889.31
2022-10-13T22:46:25.914Z,101895.47
2022-10-13T22:48:54.601Z,101895.47
2022-10-13T22:51:24.533Z,101886.59
2022-10-13T22:53:52.693Z,101885.69
2022-10-13T22:56:25.032Z,101888.75
2022-10-13T22:58:55.009Z,101883.44
2022-10-13T23:01:24.111Z,101889.44
2022-10-13T23:03:53.562Z,101889.44
2022-10-13T23:06:24.464Z,101883.38
2022-10-13T23:08:52.208Z,101888.56
2022-10-13T23:11:20.701Z,101887.63
2022-10-13T23:13:48.610Z,101885.06
2022-10-13T23:16:22.761Z,101879.00
2022-10-13T23:18:51.053Z,101880.88
2022-10-13T23:21:20.848Z,101873.72
2022-10-13T23:23:48.423Z,101879.00
2022-10-13T23:26:17.628Z,101881.06
2022-10-13T23:28:45.407Z,101874.63
2022-10-13T23:31:15.916Z,101879.19
2022-10-13T23:33:43.600Z,101870.47
2022-10-13T23:36:16.771Z,101875.75
2022-10-13T23:38:44.910Z,101870.56
2022-10-13T23:41:14.556Z,101874.06
2022-10-13T23:43:43.113Z,101867.91
2022-10-13T23:46:11.076Z,101869.69
2022-10-13T23:48:39.957Z,101872.34
2022-10-13T23:51:12.047Z,101862.69
2022-10-13T23:53:40.883Z,101863.53
2022-10-13T23:56:09.893Z,101864.41
2022-10-13T23:58:38.198Z,101866.31
